sensor_id;sensor_type;location;lat;lon;timestamp;P1;durP1;ratioP1;P2;durP2;ratioP2
7821;SDS011;3956;50.558;9.678;2023-02-28T00:02:01;3.30;;;2.40;;
7821;SDS011;3956;50.558;9.678;2023-02-28T00:04:35;3.73;;;2.60;;
7821;SDS011;3956;50.558;9.678;2023-02-28T00:07:06;3.43;;;2.70;;
7821;SDS011;3956;50.558;9.678;2023-02-28T00:09:36;4.93;;;2.50;;
7821;SDS011;3956;50.558;9.678;2023-02-28T00:12:06;4.57;;;2.40;;
7821;SDS011;3956;50.558;9.678;2023-02-28T00:14:36;2.70;;;2.40;;
7821;SDS011;3956;50.558;9.678;2023-02-28T00:17:04;3.53;;;2.40;;
7821;SDS011;3956;50.558;9.678;2023-02-28T00:19:34;3.33;;;2.57;;
7821;SDS011;3956;50.558;9.678;2023-02-28T00:22:02;2.73;;;2.13;;
7821;SDS011;3956;50.558;9.678;2023-02-28T00:24:32;2.60;;;2.20;;
7821;SDS011;3956;50.558;9.678;2023-02-28T00:27:00;2.77;;;2.10;;
7821;SDS011;3956;50.558;9.678;2023-02-28T00:29:28;4.43;;;2.23;;
7821;SDS011;3956;50.558;9.678;2023-02-28T00:31:57;3.33;;;2.10;;
7821;SDS011;3956;50.558;9.678;2023-02-28T00:34:29;2.87;;;2.10;;
7821;SDS011;3956;50.558;9.678;2023-02-28T00:36:59;2.80;;;2.23;;
7821;SDS011;3956;50.558;9.678;2023-02-28T00:39:27;4.87;;;2.30;;
7821;SDS011;3956;50.558;9.678;2023-02-28T00:41:56;5.83;;;2.63;;
7821;SDS011;3956;50.558;9.678;2023-02-28T00:44:25;3.50;;;2.20;;
7821;SDS011;3956;50.558;9.678;2023-02-28T00:46:55;3.53;;;2.40;;
7821;SDS011;3956;50.558;9.678;2023-02-28T00:49:25;3.87;;;2.40;;
7821;SDS011;3956;50.558;9.678;2023-02-28T00:51:54;4.70;;;2.30;;
7821;SDS011;3956;50.558;9.678;2023-02-28T00:54:25;3.93;;;2.67;;
7821;SDS011;3956;50.558;9.678;2023-02-28T00:56:53;3.17;;;2.30;;
7821;SDS011;3956;50.558;9.678;2023-02-28T00:59:23;5.30;;;2.37;;
7821;SDS011;3956;50.558;9.678;2023-02-28T01:01:52;4.63;;;2.30;;
7821;SDS011;3956;50.558;9.678;2023-02-28T01:04:23;4.37;;;2.90;;
7821;SDS011;3956;50.558;9.678;2023-02-28T01:06:52;2.83;;;2.40;;
7821;SDS011;3956;50.558;9.678;2023-02-28T01:09:20;3.00;;;2.50;;
7821;SDS011;3956;50.558;9.678;2023-02-28T01:11:52;4.23;;;2.57;;
7821;SDS011;3956;50.558;9.678;2023-02-28T01:14:22;2.77;;;2.50;;
7821;SDS011;3956;50.558;9.678;2023-02-28T01:16:57;3.70;;;2.67;;
7821;SDS011;3956;50.558;9.678;2023-02-28T01:19:26;3.43;;;2.70;;
7821;SDS011;3956;50.558;9.678;2023-02-28T01:21:54;2.67;;;2.47;;
7821;SDS011;3956;50.558;9.678;2023-02-28T01:24:23;6.60;;;2.97;;
7821;SDS011;3956;50.558;9.678;2023-02-28T01:26:54;4.20;;;2.90;;
7821;SDS011;3956;50.558;9.678;2023-02-28T01:29:24;4.47;;;2.97;;
7821;SDS011;3956;50.558;9.678;2023-02-28T01:31:53;2.87;;;2.43;;
7821;SDS011;3956;50.558;9.678;2023-02-28T01:34:21;3.10;;;2.40;;
7821;SDS011;3956;50.558;9.678;2023-02-28T01:36:53;3.37;;;2.37;;
7821;SDS011;3956;50.558;9.678;2023-02-28T01:39:21;3.67;;;2.40;;
7821;SDS011;3956;50.558;9.678;2023-02-28T01:41:49;2.97;;;2.60;;
7821;SDS011;3956;50.558;9.678;2023-02-28T01:47:28;3.00;;;2.30;;
7821;SDS011;3956;50.558;9.678;2023-02-28T01:49:59;4.10;;;2.63;;
7821;SDS011;3956;50.558;9.678;2023-02-28T01:52:35;4.97;;;2.30;;
7821;SDS011;3956;50.558;9.678;2023-02-28T01:55:06;3.57;;;2.10;;
7821;SDS011;3956;50.558;9.678;2023-02-28T01:57:38;4.23;;;2.50;;
7821;SDS011;3956;50.558;9.678;2023-02-28T02:00:15;3.20;;;2.40;;
7821;SDS011;3956;50.558;9.678;2023-02-28T02:02:46;2.63;;;2.20;;
7821;SDS011;3956;50.558;9.678;2023-02-28T02:05:19;3.40;;;2.30;;
7821;SDS011;3956;50.558;9.678;2023-02-28T02:07:51;2.80;;;2.30;;
7821;SDS011;3956;50.558;9.678;2023-02-28T02:10:24;3.83;;;2.43;;
7821;SDS011;3956;50.558;9.678;2023-02-28T02:13:06;3.80;;;2.57;;
7821;SDS011;3956;50.558;9.678;2023-02-28T02:15:44;4.90;;;2.40;;
7821;SDS011;3956;50.558;9.678;2023-02-28T02:18:23;4.80;;;2.40;;
7821;SDS011;3956;50.558;9.678;2023-02-28T02:21:04;3.03;;;2.40;;
7821;SDS011;3956;50.558;9.678;2023-02-28T02:27:17;3.60;;;2.20;;
7821;SDS011;3956;50.558;9.678;2023-02-28T02:30:14;3.87;;;2.37;;
7821;SDS011;3956;50.558;9.678;2023-02-28T02:33:03;7.23;;;2.60;;
7821;SDS011;3956;50.558;9.678;2023-02-28T02:35:44;3.30;;;2.13;;
7821;SDS011;3956;50.558;9.678;2023-02-28T02:38:22;2.63;;;2.00;;
7821;SDS011;3956;50.558;9.678;2023-02-28T02:41:01;3.43;;;2.60;;
7821;SDS011;3956;50.558;9.678;2023-02-28T02:43:44;3.07;;;2.30;;
7821;SDS011;3956;50.558;9.678;2023-02-28T02:46:17;3.03;;;2.23;;
7821;SDS011;3956;50.558;9.678;2023-02-28T02:48:52;4.07;;;2.30;;
7821;SDS011;3956;50.558;9.678;2023-02-28T02:51:24;3.00;;;2.20;;
7821;SDS011;3956;50.558;9.678;2023-02-28T02:53:58;4.77;;;2.43;;
7821;SDS011;3956;50.558;9.678;2023-02-28T02:56:33;6.93;;;2.50;;
7821;SDS011;3956;50.558;9.678;2023-02-28T02:59:06;2.90;;;2.47;;
7821;SDS011;3956;50.558;9.678;2023-02-28T03:01:38;2.47;;;2.00;;
7821;SDS011;3956;50.558;9.678;2023-02-28T03:04:11;3.80;;;2.00;;
7821;SDS011;3956;50.558;9.678;2023-02-28T03:06:43;2.40;;;2.00;;
7821;SDS011;3956;50.558;9.678;2023-02-28T03:09:12;2.63;;;2.00;;
7821;SDS011;3956;50.558;9.678;2023-02-28T03:11:41;3.67;;;2.07;;
7821;SDS011;3956;50.558;9.678;2023-02-28T03:14:12;3.90;;;2.20;;
7821;SDS011;3956;50.558;9.678;2023-02-28T03:16:59;4.83;;;2.50;;
7821;SDS011;3956;50.558;9.678;2023-02-28T03:19:51;3.53;;;2.20;;
7821;SDS011;3956;50.558;9.678;2023-02-28T03:25:29;5.50;;;2.40;;
7821;SDS011;3956;50.558;9.678;2023-02-28T03:28:04;4.23;;;2.63;;
7821;SDS011;3956;50.558;9.678;2023-02-28T03:30:41;4.47;;;2.50;;
7821;SDS011;3956;50.558;9.678;2023-02-28T03:33:18;5.00;;;2.40;;
7821;SDS011;3956;50.558;9.678;2023-02-28T03:35:54;3.67;;;2.07;;
7821;SDS011;3956;50.558;9.678;2023-02-28T03:38:33;4.20;;;2.33;;
7821;SDS011;3956;50.558;9.678;2023-02-28T03:41:12;3.10;;;2.27;;
7821;SDS011;3956;50.558;9.678;2023-02-28T03:43:44;4.17;;;2.57;;
7821;SDS011;3956;50.558;9.678;2023-02-28T03:46:22;5.90;;;2.10;;
7821;SDS011;3956;50.558;9.678;2023-02-28T03:48:53;5.47;;;2.50;;
7821;SDS011;3956;50.558;9.678;2023-02-28T03:51:26;4.97;;;2.17;;
7821;SDS011;3956;50.558;9.678;2023-02-28T03:53:58;4.70;;;2.40;;
7821;SDS011;3956;50.558;9.678;2023-02-28T03:56:31;3.27;;;2.30;;
7821;SDS011;3956;50.558;9.678;2023-02-28T03:59:02;3.23;;;2.47;;
7821;SDS011;3956;50.558;9.678;2023-02-28T04:01:40;4.87;;;2.43;;
7821;SDS011;3956;50.558;9.678;2023-02-28T04:04:12;3.30;;;2.57;;
7821;SDS011;3956;50.558;9.678;2023-02-28T04:06:45;4.57;;;2.47;;
7821;SDS011;3956;50.558;9.678;2023-02-28T04:09:14;4.77;;;2.70;;
7821;SDS011;3956;50.558;9.678;2023-02-28T04:11:45;5.00;;;2.50;;
7821;SDS011;3956;50.558;9.678;2023-02-28T04:14:18;4.87;;;2.30;;
7821;SDS011;3956;50.558;9.678;2023-02-28T04:16:46;4.93;;;2.80;;
7821;SDS011;3956;50.558;9.678;2023-02-28T04:19:16;4.50;;;2.80;;
7821;SDS011;3956;50.558;9.678;2023-02-28T04:21:46;3.60;;;2.77;;
7821;SDS011;3956;50.558;9.678;2023-02-28T04:24:20;3.33;;;2.67;;
7821;SDS011;3956;50.558;9.678;2023-02-28T04:26:53;5.80;;;2.93;;
7821;SDS011;3956;50.558;9.678;2023-02-28T04:29:23;5.53;;;2.93;;
7821;SDS011;3956;50.558;9.678;2023-02-28T04:31:56;4.10;;;2.93;;
7821;SDS011;3956;50.558;9.678;2023-02-28T04:34:27;3.80;;;2.77;;
7821;SDS011;3956;50.558;9.678;2023-02-28T04:36:57;9.30;;;4.13;;
7821;SDS011;3956;50.558;9.678;2023-02-28T04:40:04;4.93;;;2.83;;
7821;SDS011;3956;50.558;9.678;2023-02-28T04:42:39;5.97;;;2.70;;
7821;SDS011;3956;50.558;9.678;2023-02-28T04:45:12;4.07;;;2.87;;
7821;SDS011;3956;50.558;9.678;2023-02-28T04:47:41;4.90;;;3.00;;
7821;SDS011;3956;50.558;9.678;2023-02-28T04:50:12;6.30;;;3.07;;
7821;SDS011;3956;50.558;9.678;2023-02-28T04:52:40;4.37;;;3.13;;
7821;SDS011;3956;50.558;9.678;2023-02-28T04:55:13;4.70;;;3.03;;
7821;SDS011;3956;50.558;9.678;2023-02-28T04:57:42;3.73;;;2.93;;
7821;SDS011;3956;50.558;9.678;2023-02-28T05:00:11;5.07;;;3.10;;
7821;SDS011;3956;50.558;9.678;2023-02-28T05:02:54;5.33;;;3.00;;
7821;SDS011;3956;50.558;9.678;2023-02-28T05:05:23;5.03;;;3.13;;
7821;SDS011;3956;50.558;9.678;2023-02-28T05:07:53;4.97;;;3.17;;
7821;SDS011;3956;50.558;9.678;2023-02-28T05:10:25;4.07;;;3.20;;
7821;SDS011;3956;50.558;9.678;2023-02-28T05:12:54;5.67;;;3.40;;
7821;SDS011;3956;50.558;9.678;2023-02-28T05:15:27;6.03;;;3.97;;
7821;SDS011;3956;50.558;9.678;2023-02-28T05:18:18;5.90;;;3.40;;
7821;SDS011;3956;50.558;9.678;2023-02-28T05:20:47;5.40;;;3.73;;
7821;SDS011;3956;50.558;9.678;2023-02-28T05:23:15;4.60;;;3.50;;
7821;SDS011;3956;50.558;9.678;2023-02-28T05:25:47;4.83;;;3.47;;
7821;SDS011;3956;50.558;9.678;2023-02-28T05:28:15;6.20;;;3.70;;
7821;SDS011;3956;50.558;9.678;2023-02-28T05:30:43;5.97;;;3.57;;
7821;SDS011;3956;50.558;9.678;2023-02-28T05:33:11;6.00;;;3.53;;
7821;SDS011;3956;50.558;9.678;2023-02-28T05:35:39;7.87;;;4.00;;
7821;SDS011;3956;50.558;9.678;2023-02-28T05:38:09;6.90;;;4.50;;
7821;SDS011;3956;50.558;9.678;2023-02-28T05:40:39;6.63;;;3.80;;
7821;SDS011;3956;50.558;9.678;2023-02-28T05:43:10;4.53;;;3.80;;
7821;SDS011;3956;50.558;9.678;2023-02-28T05:45:39;6.87;;;4.10;;
7821;SDS011;3956;50.558;9.678;2023-02-28T05:48:07;8.90;;;4.43;;
7821;SDS011;3956;50.558;9.678;2023-02-28T05:50:35;9.53;;;3.97;;
7821;SDS011;3956;50.558;9.678;2023-02-28T05:53:06;7.70;;;4.50;;
7821;SDS011;3956;50.558;9.678;2023-02-28T05:56:20;8.97;;;4.63;;
7821;SDS011;3956;50.558;9.678;2023-02-28T05:59:30;6.77;;;4.60;;
7821;SDS011;3956;50.558;9.678;2023-02-28T06:01:58;6.87;;;5.00;;
7821;SDS011;3956;50.558;9.678;2023-02-28T06:04:31;7.03;;;4.20;;
7821;SDS011;3956;50.558;9.678;2023-02-28T06:06:59;7.97;;;4.73;;
7821;SDS011;3956;50.558;9.678;2023-02-28T06:09:30;7.13;;;4.83;;
7821;SDS011;3956;50.558;9.678;2023-02-28T06:12:02;8.53;;;5.23;;
7821;SDS011;3956;50.558;9.678;2023-02-28T06:14:43;7.53;;;4.83;;
7821;SDS011;3956;50.558;9.678;2023-02-28T06:17:20;6.33;;;4.90;;
7821;SDS011;3956;50.558;9.678;2023-02-28T06:19:50;11.10;;;6.20;;
7821;SDS011;3956;50.558;9.678;2023-02-28T06:23:01;9.63;;;5.63;;
7821;SDS011;3956;50.558;9.678;2023-02-28T06:26:16;9.73;;;5.43;;
7821;SDS011;3956;50.558;9.678;2023-02-28T06:29:34;10.00;;;5.03;;
7821;SDS011;3956;50.558;9.678;2023-02-28T06:39:10;10.07;;;5.20;;
7821;SDS011;3956;50.558;9.678;2023-02-28T06:42:09;11.80;;;6.60;;
7821;SDS011;3956;50.558;9.678;2023-02-28T06:44:59;10.07;;;6.20;;
7821;SDS011;3956;50.558;9.678;2023-02-28T06:47:39;10.47;;;5.73;;
7821;SDS011;3956;50.558;9.678;2023-02-28T06:50:14;7.97;;;6.17;;
7821;SDS011;3956;50.558;9.678;2023-02-28T06:52:49;8.63;;;5.63;;
7821;SDS011;3956;50.558;9.678;2023-02-28T06:55:21;11.60;;;5.80;;
7821;SDS011;3956;50.558;9.678;2023-02-28T06:57:49;10.20;;;5.77;;
7821;SDS011;3956;50.558;9.678;2023-02-28T07:00:20;8.83;;;5.13;;
7821;SDS011;3956;50.558;9.678;2023-02-28T07:02:49;9.40;;;5.97;;
7821;SDS011;3956;50.558;9.678;2023-02-28T07:05:17;10.20;;;5.90;;
7821;SDS011;3956;50.558;9.678;2023-02-28T07:07:48;9.20;;;5.33;;
7821;SDS011;3956;50.558;9.678;2023-02-28T07:10:21;10.83;;;5.80;;
7821;SDS011;3956;50.558;9.678;2023-02-28T07:12:49;9.53;;;5.40;;
7821;SDS011;3956;50.558;9.678;2023-02-28T07:15:18;13.03;;;6.10;;
7821;SDS011;3956;50.558;9.678;2023-02-28T07:17:50;10.70;;;5.17;;
7821;SDS011;3956;50.558;9.678;2023-02-28T07:20:18;8.57;;;5.30;;
7821;SDS011;3956;50.558;9.678;2023-02-28T07:22:48;10.13;;;5.40;;
7821;SDS011;3956;50.558;9.678;2023-02-28T07:25:22;10.33;;;6.37;;
7821;SDS011;3956;50.558;9.678;2023-02-28T07:27:55;8.73;;;5.57;;
7821;SDS011;3956;50.558;9.678;2023-02-28T07:30:26;11.33;;;5.13;;
7821;SDS011;3956;50.558;9.678;2023-02-28T07:33:06;7.10;;;5.10;;
7821;SDS011;3956;50.558;9.678;2023-02-28T07:36:01;7.83;;;4.77;;
7821;SDS011;3956;50.558;9.678;2023-02-28T07:38:52;7.93;;;4.70;;
7821;SDS011;3956;50.558;9.678;2023-02-28T07:41:37;10.50;;;4.77;;
7821;SDS011;3956;50.558;9.678;2023-02-28T07:44:11;7.67;;;4.50;;
7821;SDS011;3956;50.558;9.678;2023-02-28T07:46:41;6.27;;;5.10;;
7821;SDS011;3956;50.558;9.678;2023-02-28T07:49:09;8.03;;;3.90;;
7821;SDS011;3956;50.558;9.678;2023-02-28T07:51:38;6.50;;;4.60;;
7821;SDS011;3956;50.558;9.678;2023-02-28T07:54:09;5.60;;;3.60;;
7821;SDS011;3956;50.558;9.678;2023-02-28T07:56:41;7.40;;;4.30;;
7821;SDS011;3956;50.558;9.678;2023-02-28T07:59:49;6.57;;;3.60;;
7821;SDS011;3956;50.558;9.678;2023-02-28T08:02:23;6.80;;;3.90;;
7821;SDS011;3956;50.558;9.678;2023-02-28T08:04:57;5.07;;;3.70;;
7821;SDS011;3956;50.558;9.678;2023-02-28T08:07:26;5.40;;;3.47;;
7821;SDS011;3956;50.558;9.678;2023-02-28T08:10:09;9.43;;;4.10;;
7821;SDS011;3956;50.558;9.678;2023-02-28T08:12:39;6.40;;;4.00;;
7821;SDS011;3956;50.558;9.678;2023-02-28T08:15:07;7.63;;;3.97;;
7821;SDS011;3956;50.558;9.678;2023-02-28T08:17:38;8.07;;;4.37;;
7821;SDS011;3956;50.558;9.678;2023-02-28T08:20:45;4.83;;;3.50;;
7821;SDS011;3956;50.558;9.678;2023-02-28T08:23:23;4.93;;;3.53;;
7821;SDS011;3956;50.558;9.678;2023-02-28T08:26:02;4.57;;;3.43;;
7821;SDS011;3956;50.558;9.678;2023-02-28T08:28:53;5.37;;;3.57;;
7821;SDS011;3956;50.558;9.678;2023-02-28T08:31:23;6.20;;;3.70;;
7821;SDS011;3956;50.558;9.678;2023-02-28T08:33:57;5.17;;;3.67;;
7821;SDS011;3956;50.558;9.678;2023-02-28T08:36:42;5.00;;;3.23;;
7821;SDS011;3956;50.558;9.678;2023-02-28T08:39:24;6.03;;;3.70;;
7821;SDS011;3956;50.558;9.678;2023-02-28T08:41:53;5.17;;;3.07;;
7821;SDS011;3956;50.558;9.678;2023-02-28T08:44:34;3.43;;;2.50;;
7821;SDS011;3956;50.558;9.678;2023-02-28T08:47:17;4.50;;;2.77;;
7821;SDS011;3956;50.558;9.678;2023-02-28T08:49:53;5.20;;;3.47;;
7821;SDS011;3956;50.558;9.678;2023-02-28T08:52:27;4.17;;;3.50;;
7821;SDS011;3956;50.558;9.678;2023-02-28T08:54:57;3.47;;;2.73;;
7821;SDS011;3956;50.558;9.678;2023-02-28T08:57:28;4.90;;;3.33;;
7821;SDS011;3956;50.558;9.678;2023-02-28T09:00:47;4.53;;;2.70;;
7821;SDS011;3956;50.558;9.678;2023-02-28T09:03:18;4.20;;;3.17;;
7821;SDS011;3956;50.558;9.678;2023-02-28T09:05:58;3.97;;;2.63;;
7821;SDS011;3956;50.558;9.678;2023-02-28T09:08:56;5.17;;;2.57;;
7821;SDS011;3956;50.558;9.678;2023-02-28T09:11:45;4.23;;;3.17;;
7821;SDS011;3956;50.558;9.678;2023-02-28T09:14:17;4.90;;;3.17;;
7821;SDS011;3956;50.558;9.678;2023-02-28T09:16:59;4.33;;;2.60;;
7821;SDS011;3956;50.558;9.678;2023-02-28T09:19:30;3.30;;;2.27;;
7821;SDS011;3956;50.558;9.678;2023-02-28T09:22:01;3.77;;;2.60;;
7821;SDS011;3956;50.558;9.678;2023-02-28T09:24:29;3.83;;;3.23;;
7821;SDS011;3956;50.558;9.678;2023-02-28T09:27:03;4.33;;;2.97;;
7821;SDS011;3956;50.558;9.678;2023-02-28T09:29:38;5.73;;;3.67;;
7821;SDS011;3956;50.558;9.678;2023-02-28T09:32:06;3.97;;;2.43;;
7821;SDS011;3956;50.558;9.678;2023-02-28T09:34:34;4.17;;;2.97;;
7821;SDS011;3956;50.558;9.678;2023-02-28T09:37:05;3.67;;;2.80;;
7821;SDS011;3956;50.558;9.678;2023-02-28T09:39:33;4.17;;;3.00;;
7821;SDS011;3956;50.558;9.678;2023-02-28T09:42:04;6.17;;;3.40;;
7821;SDS011;3956;50.558;9.678;2023-02-28T09:44:38;5.67;;;3.20;;
7821;SDS011;3956;50.558;9.678;2023-02-28T09:47:13;6.53;;;3.43;;
7821;SDS011;3956;50.558;9.678;2023-02-28T09:50:23;4.10;;;2.63;;
7821;SDS011;3956;50.558;9.678;2023-02-28T09:53:26;3.73;;;2.80;;
7821;SDS011;3956;50.558;9.678;2023-02-28T09:56:07;4.30;;;3.03;;
7821;SDS011;3956;50.558;9.678;2023-02-28T09:58:41;4.93;;;3.27;;
7821;SDS011;3956;50.558;9.678;2023-02-28T10:01:18;4.40;;;3.10;;
7821;SDS011;3956;50.558;9.678;2023-02-28T10:03:50;5.07;;;3.27;;
7821;SDS011;3956;50.558;9.678;2023-02-28T10:06:26;4.43;;;2.83;;
7821;SDS011;3956;50.558;9.678;2023-02-28T10:08:59;6.03;;;3.77;;
7821;SDS011;3956;50.558;9.678;2023-02-28T10:12:00;5.87;;;3.10;;
7821;SDS011;3956;50.558;9.678;2023-02-28T10:14:32;5.10;;;3.40;;
7821;SDS011;3956;50.558;9.678;2023-02-28T10:17:06;6.93;;;3.67;;
7821;SDS011;3956;50.558;9.678;2023-02-28T10:19:42;4.70;;;3.33;;
7821;SDS011;3956;50.558;9.678;2023-02-28T10:22:17;6.30;;;2.57;;
7821;SDS011;3956;50.558;9.678;2023-02-28T10:24:50;5.67;;;3.10;;
7821;SDS011;3956;50.558;9.678;2023-02-28T10:27:21;5.83;;;3.10;;
7821;SDS011;3956;50.558;9.678;2023-02-28T10:29:53;5.37;;;3.00;;
7821;SDS011;3956;50.558;9.678;2023-02-28T10:32:26;6.00;;;3.73;;
7821;SDS011;3956;50.558;9.678;2023-02-28T10:35:01;4.27;;;2.97;;
7821;SDS011;3956;50.558;9.678;2023-02-28T10:37:38;4.43;;;3.07;;
7821;SDS011;3956;50.558;9.678;2023-02-28T10:40:24;4.60;;;2.80;;
7821;SDS011;3956;50.558;9.678;2023-02-28T10:42:59;6.17;;;3.30;;
7821;SDS011;3956;50.558;9.678;2023-02-28T10:45:34;6.23;;;3.40;;
7821;SDS011;3956;50.558;9.678;2023-02-28T10:48:24;3.77;;;2.70;;
7821;SDS011;3956;50.558;9.678;2023-02-28T10:50:56;6.17;;;3.03;;
7821;SDS011;3956;50.558;9.678;2023-02-28T10:53:28;5.97;;;3.53;;
7821;SDS011;3956;50.558;9.678;2023-02-28T10:56:32;4.43;;;2.90;;
7821;SDS011;3956;50.558;9.678;2023-02-28T10:59:45;4.63;;;3.20;;
7821;SDS011;3956;50.558;9.678;2023-02-28T11:02:41;5.23;;;3.60;;
7821;SDS011;3956;50.558;9.678;2023-02-28T11:05:29;5.20;;;3.37;;
7821;SDS011;3956;50.558;9.678;2023-02-28T11:08:20;5.57;;;3.43;;
7821;SDS011;3956;50.558;9.678;2023-02-28T11:10:57;5.13;;;3.20;;
7821;SDS011;3956;50.558;9.678;2023-02-28T11:13:32;5.23;;;3.53;;
7821;SDS011;3956;50.558;9.678;2023-02-28T11:16:02;8.83;;;4.30;;
7821;SDS011;3956;50.558;9.678;2023-02-28T11:18:34;2.80;;;2.37;;
7821;SDS011;3956;50.558;9.678;2023-02-28T11:21:14;5.43;;;3.80;;
7821;SDS011;3956;50.558;9.678;2023-02-28T11:23:46;9.13;;;4.17;;
7821;SDS011;3956;50.558;9.678;2023-02-28T11:26:35;8.50;;;4.10;;
7821;SDS011;3956;50.558;9.678;2023-02-28T11:29:11;6.73;;;3.93;;
7821;SDS011;3956;50.558;9.678;2023-02-28T11:32:04;6.10;;;3.70;;
7821;SDS011;3956;50.558;9.678;2023-02-28T11:34:40;5.40;;;3.53;;
7821;SDS011;3956;50.558;9.678;2023-02-28T11:37:17;6.63;;;3.67;;
7821;SDS011;3956;50.558;9.678;2023-02-28T11:39:49;4.73;;;3.53;;
7821;SDS011;3956;50.558;9.678;2023-02-28T11:42:43;5.60;;;4.00;;
7821;SDS011;3956;50.558;9.678;2023-02-28T11:45:26;6.20;;;3.87;;
7821;SDS011;3956;50.558;9.678;2023-02-28T11:48:13;7.33;;;3.93;;
7821;SDS011;3956;50.558;9.678;2023-02-28T11:51:18;6.83;;;4.23;;
7821;SDS011;3956;50.558;9.678;2023-02-28T11:54:26;21.17;;;4.23;;
7821;SDS011;3956;50.558;9.678;2023-02-28T11:57:11;6.50;;;3.77;;
7821;SDS011;3956;50.558;9.678;2023-02-28T12:00:10;4.97;;;3.80;;
7821;SDS011;3956;50.558;9.678;2023-02-28T12:02:58;8.43;;;4.27;;
7821;SDS011;3956;50.558;9.678;2023-02-28T12:06:05;6.33;;;4.47;;
7821;SDS011;3956;50.558;9.678;2023-02-28T12:09:04;5.83;;;4.13;;
7821;SDS011;3956;50.558;9.678;2023-02-28T12:12:07;5.57;;;3.53;;
7821;SDS011;3956;50.558;9.678;2023-02-28T12:18:17;5.97;;;4.07;;
7821;SDS011;3956;50.558;9.678;2023-02-28T12:21:11;4.90;;;3.60;;
7821;SDS011;3956;50.558;9.678;2023-02-28T12:24:27;6.33;;;3.93;;
7821;SDS011;3956;50.558;9.678;2023-02-28T12:27:34;6.00;;;4.17;;
7821;SDS011;3956;50.558;9.678;2023-02-28T12:30:12;8.17;;;4.73;;
7821;SDS011;3956;50.558;9.678;2023-02-28T12:32:46;4.90;;;4.03;;
7821;SDS011;3956;50.558;9.678;2023-02-28T12:35:22;6.70;;;3.97;;
7821;SDS011;3956;50.558;9.678;2023-02-28T12:37:57;12.20;;;4.53;;
7821;SDS011;3956;50.558;9.678;2023-02-28T12:40:47;7.63;;;4.67;;
7821;SDS011;3956;50.558;9.678;2023-02-28T12:43:29;7.23;;;4.50;;
7821;SDS011;3956;50.558;9.678;2023-02-28T12:46:09;5.93;;;3.83;;
7821;SDS011;3956;50.558;9.678;2023-02-28T12:48:52;4.53;;;3.50;;
7821;SDS011;3956;50.558;9.678;2023-02-28T12:51:44;5.73;;;4.07;;
7821;SDS011;3956;50.558;9.678;2023-02-28T12:54:44;5.00;;;3.83;;
7821;SDS011;3956;50.558;9.678;2023-02-28T12:57:18;8.77;;;4.10;;
7821;SDS011;3956;50.558;9.678;2023-02-28T13:00:10;5.93;;;4.43;;
7821;SDS011;3956;50.558;9.678;2023-02-28T13:06:56;4.47;;;3.40;;
7821;SDS011;3956;50.558;9.678;2023-02-28T13:10:28;5.57;;;4.00;;
7821;SDS011;3956;50.558;9.678;2023-02-28T13:13:56;6.43;;;4.00;;
7821;SDS011;3956;50.558;9.678;2023-02-28T13:16:27;5.33;;;3.97;;
7821;SDS011;3956;50.558;9.678;2023-02-28T13:19:11;5.00;;;3.50;;
7821;SDS011;3956;50.558;9.678;2023-02-28T13:21:44;8.03;;;3.97;;
7821;SDS011;3956;50.558;9.678;2023-02-28T13:27:40;6.43;;;3.80;;
7821;SDS011;3956;50.558;9.678;2023-02-28T13:31:04;5.53;;;3.80;;
7821;SDS011;3956;50.558;9.678;2023-02-28T13:36:36;4.93;;;3.77;;
7821;SDS011;3956;50.558;9.678;2023-02-28T13:42:46;4.47;;;3.53;;
7821;SDS011;3956;50.558;9.678;2023-02-28T13:46:10;12.63;;;4.50;;
7821;SDS011;3956;50.558;9.678;2023-02-28T13:49:26;4.67;;;3.77;;
7821;SDS011;3956;50.558;9.678;2023-02-28T13:52:06;6.83;;;4.33;;
7821;SDS011;3956;50.558;9.678;2023-02-28T13:54:51;5.87;;;3.87;;
7821;SDS011;3956;50.558;9.678;2023-02-28T13:57:29;8.53;;;4.27;;
7821;SDS011;3956;50.558;9.678;2023-02-28T14:00:16;10.03;;;4.83;;
7821;SDS011;3956;50.558;9.678;2023-02-28T14:02:59;5.10;;;4.03;;
7821;SDS011;3956;50.558;9.678;2023-02-28T14:05:39;6.77;;;4.03;;
7821;SDS011;3956;50.558;9.678;2023-02-28T14:08:19;5.47;;;4.07;;
7821;SDS011;3956;50.558;9.678;2023-02-28T14:11:04;5.90;;;4.10;;
7821;SDS011;3956;50.558;9.678;2023-02-28T14:13:38;6.07;;;4.10;;
7821;SDS011;3956;50.558;9.678;2023-02-28T14:16:16;5.67;;;3.63;;
7821;SDS011;3956;50.558;9.678;2023-02-28T14:19:01;5.80;;;3.80;;
7821;SDS011;3956;50.558;9.678;2023-02-28T14:21:39;6.93;;;3.90;;
7821;SDS011;3956;50.558;9.678;2023-02-28T14:31:37;8.47;;;4.77;;
7821;SDS011;3956;50.558;9.678;2023-02-28T14:34:29;7.23;;;4.40;;
7821;SDS011;3956;50.558;9.678;2023-02-28T14:37:13;6.10;;;4.30;;
7821;SDS011;3956;50.558;9.678;2023-02-28T14:40:15;5.70;;;3.77;;
7821;SDS011;3956;50.558;9.678;2023-02-28T14:43:17;7.07;;;4.07;;
7821;SDS011;3956;50.558;9.678;2023-02-28T14:45:50;6.63;;;4.53;;
7821;SDS011;3956;50.558;9.678;2023-02-28T14:48:52;7.23;;;4.53;;
7821;SDS011;3956;50.558;9.678;2023-02-28T14:51:25;5.17;;;4.00;;
7821;SDS011;3956;50.558;9.678;2023-02-28T14:53:57;9.00;;;4.40;;
7821;SDS011;3956;50.558;9.678;2023-02-28T14:56:48;6.53;;;4.33;;
7821;SDS011;3956;50.558;9.678;2023-02-28T14:59:43;6.37;;;4.13;;
7821;SDS011;3956;50.558;9.678;2023-02-28T15:02:34;6.33;;;4.10;;
7821;SDS011;3956;50.558;9.678;2023-02-28T15:08:37;7.60;;;4.33;;
7821;SDS011;3956;50.558;9.678;2023-02-28T15:11:07;5.30;;;3.50;;
7821;SDS011;3956;50.558;9.678;2023-02-28T15:13:57;8.00;;;4.30;;
7821;SDS011;3956;50.558;9.678;2023-02-28T15:16:34;7.80;;;4.80;;
7821;SDS011;3956;50.558;9.678;2023-02-28T15:19:07;5.10;;;4.20;;
7821;SDS011;3956;50.558;9.678;2023-02-28T15:21:53;5.33;;;3.73;;
7821;SDS011;3956;50.558;9.678;2023-02-28T15:25:15;5.93;;;3.87;;
7821;SDS011;3956;50.558;9.678;2023-02-28T15:28:17;7.20;;;4.60;;
7821;SDS011;3956;50.558;9.678;2023-02-28T15:31:16;7.53;;;3.70;;
7821;SDS011;3956;50.558;9.678;2023-02-28T15:34:25;6.97;;;4.43;;
7821;SDS011;3956;50.558;9.678;2023-02-28T15:37:27;7.50;;;4.63;;
7821;SDS011;3956;50.558;9.678;2023-02-28T15:40:35;7.30;;;4.70;;
7821;SDS011;3956;50.558;9.678;2023-02-28T15:43:46;7.63;;;4.70;;
7821;SDS011;3956;50.558;9.678;2023-02-28T15:46:14;8.27;;;4.70;;
7821;SDS011;3956;50.558;9.678;2023-02-28T15:49:12;8.03;;;4.63;;
7821;SDS011;3956;50.558;9.678;2023-02-28T15:51:50;8.43;;;4.50;;
7821;SDS011;3956;50.558;9.678;2023-02-28T15:54:27;8.60;;;4.63;;
7821;SDS011;3956;50.558;9.678;2023-02-28T15:57:05;6.97;;;5.07;;
7821;SDS011;3956;50.558;9.678;2023-02-28T15:59:50;7.20;;;4.70;;
7821;SDS011;3956;50.558;9.678;2023-02-28T16:02:39;5.77;;;4.23;;
7821;SDS011;3956;50.558;9.678;2023-02-28T16:05:37;8.60;;;5.13;;
7821;SDS011;3956;50.558;9.678;2023-02-28T16:08:20;7.67;;;4.60;;
7821;SDS011;3956;50.558;9.678;2023-02-28T16:10:52;6.17;;;4.53;;
7821;SDS011;3956;50.558;9.678;2023-02-28T16:13:24;13.67;;;5.67;;
7821;SDS011;3956;50.558;9.678;2023-02-28T16:15:59;9.67;;;4.87;;
7821;SDS011;3956;50.558;9.678;2023-02-28T16:18:28;9.97;;;5.27;;
7821;SDS011;3956;50.558;9.678;2023-02-28T16:20:58;9.73;;;5.60;;
7821;SDS011;3956;50.558;9.678;2023-02-28T16:23:42;7.37;;;4.90;;
7821;SDS011;3956;50.558;9.678;2023-02-28T16:26:37;14.07;;;5.87;;
7821;SDS011;3956;50.558;9.678;2023-02-28T16:29:21;9.53;;;5.10;;
7821;SDS011;3956;50.558;9.678;2023-02-28T16:32:12;6.40;;;4.37;;
7821;SDS011;3956;50.558;9.678;2023-02-28T16:34:46;10.13;;;4.90;;
7821;SDS011;3956;50.558;9.678;2023-02-28T16:37:27;6.47;;;4.60;;
7821;SDS011;3956;50.558;9.678;2023-02-28T16:40:20;10.07;;;5.63;;
7821;SDS011;3956;50.558;9.678;2023-02-28T16:42:54;7.63;;;5.50;;
7821;SDS011;3956;50.558;9.678;2023-02-28T16:45:29;6.93;;;5.13;;
7821;SDS011;3956;50.558;9.678;2023-02-28T16:48:01;8.70;;;5.73;;
7821;SDS011;3956;50.558;9.678;2023-02-28T16:50:30;9.00;;;5.20;;
7821;SDS011;3956;50.558;9.678;2023-02-28T16:53:02;10.40;;;5.20;;
7821;SDS011;3956;50.558;9.678;2023-02-28T16:55:31;8.03;;;5.73;;
7821;SDS011;3956;50.558;9.678;2023-02-28T16:58:00;15.93;;;6.40;;
7821;SDS011;3956;50.558;9.678;2023-02-28T17:00:32;7.07;;;5.83;;
7821;SDS011;3956;50.558;9.678;2023-02-28T17:03:01;20.83;;;6.70;;
7821;SDS011;3956;50.558;9.678;2023-02-28T17:05:36;9.23;;;5.43;;
7821;SDS011;3956;50.558;9.678;2023-02-28T17:08:06;8.47;;;5.70;;
7821;SDS011;3956;50.558;9.678;2023-02-28T17:10:34;10.20;;;5.67;;
7821;SDS011;3956;50.558;9.678;2023-02-28T17:13:31;9.23;;;5.60;;